tititudorancea.com
Station Historical Data
Daily Summary for May 24, 2018 Units:  Metric    English   Both
« Previous Day
Next Day »
Daily Weekly Monthly Yearly Custom
  High: Low: Average:
Temperature: -17.8 °C 9.7 °C 11.3 °C
Dew Point: -17.8 °C 6.3 °C 7.5 °C
Humidity: Humidity % 63 % 78 %
Wind Speed: 0 km/h 5.6 km/h 13 km/h
Wind Gust: 0 km/h - -
Wind:- - SSW
Pressure: 0 hPa 1025.6 hPa -
Precipitation: 0 mm    
Historical Graphs
 
 
Ararat weather Find more about Weather in Ararat, AU


 



 


Tabular Data for May 24, 2018
Time Temperature Dew Point Pressure Wind Wind Speed Wind Gust Humidity Rainfall Rate (Hourly)
-17.8 °C -17.8 °C 0 hPa Calm     Humidity % 0 mm
00:04 10.8 °C 9.1 °C 1027 hPa SSW 5.6 km/h 5.6 km/h 89 % 0 mm
00:09 10.8 °C 9.1 °C 1027 hPa SSW 5.6 km/h 5.6 km/h 89 % 0 mm
00:14 10.8 °C 9.1 °C 1027 hPa SSW 11.1 km/h 11.1 km/h 89 % 0 mm
00:19 10.8 °C 9.1 °C 1026.6 hPa SSW 11.1 km/h 11.1 km/h 89 % 0 mm
00:24 10.8 °C 9.2 °C 1026.6 hPa SSW 16.7 km/h 16.7 km/h 90 % 0 mm
00:29 10.8 °C 9.2 °C 1026.6 hPa SSW 11.1 km/h 11.1 km/h 90 % 0 mm
00:34 10.7 °C 9.2 °C 1026.6 hPa SSW 7.4 km/h 7.4 km/h 90 % 0 mm
00:39 10.7 °C 9.1 °C 1026.6 hPa SSW 11.1 km/h 11.1 km/h 90 % 0 mm
00:44 10.6 °C 9.2 °C 1026.6 hPa SSW 14.8 km/h 14.8 km/h 91 % 0 mm
00:49 10.6 °C 9.2 °C 1026.6 hPa SSW 11.1 km/h 11.1 km/h 91 % 0 mm
00:54 10.5 °C 9.3 °C 1026.6 hPa SSW 13 km/h 13 km/h 92 % 0 mm
00:59 10.5 °C 9.3 °C 1026.6 hPa SSW 9.7 km/h 9.7 km/h 92 % 0 mm
01:04 10.4 °C 9.2 °C 1026.6 hPa North 5.6 km/h 5.6 km/h 92 % 0 mm
01:09 10.4 °C 9.2 °C 1026.6 hPa SSW 5.6 km/h 5.6 km/h 92 % 0 mm
01:14 10.4 °C 9.2 °C 1026.6 hPa SSW 7.4 km/h 7.4 km/h 92 % 0 mm
01:19 10.4 °C 9.2 °C 1026.6 hPa SSW 5.6 km/h 5.6 km/h 92 % 0 mm
01:24 10.4 °C 9.2 °C 1026.6 hPa SSW 8 km/h 8 km/h 92 % 0 mm
01:29 10.4 °C 9.2 °C 1026.6 hPa SSW 7.4 km/h 7.4 km/h 92 % 0 mm
01:34 10.3 °C 9.1 °C 1026.6 hPa North 7.4 km/h 7.4 km/h 92 % 0 mm
01:39 10.3 °C 9.1 °C 1026.6 hPa SSW 8 km/h 8 km/h 92 % 0 mm
01:44 10.3 °C 9.1 °C 1026.6 hPa SSW 7.4 km/h 7.4 km/h 92 % 0 mm
01:49 10.3 °C 9.1 °C 1026.6 hPa SSW 7.4 km/h 7.4 km/h 92 % 0 mm
01:54 10.3 °C 9.1 °C 1026.6 hPa SSW 9.7 km/h 9.7 km/h 92 % 0 mm
01:59 10.3 °C 9.1 °C 1026.6 hPa North 9.3 km/h 9.3 km/h 92 % 0 mm
02:04 10.3 °C 8.9 °C 1026.6 hPa SSW 16.7 km/h 16.7 km/h 91 % 0 mm
02:09 10.3 °C 8.8 °C 1026.6 hPa North 11.1 km/h 11.1 km/h 90 % 0 mm
02:14 10.3 °C 8.6 °C 1026.6 hPa North 13 km/h 13 km/h 89 % 0 mm
02:19 10.3 °C 8.4 °C 1026.6 hPa SSW 12.9 km/h 12.9 km/h 88 % 0 mm
02:24 10.4 °C 8.3 °C 1026.6 hPa SSW 9.3 km/h 9.3 km/h 87 % 0 mm
02:30 10.5 °C 8.1 °C 1026.6 hPa SSW 18.5 km/h 18.5 km/h 85 % 0 mm
02:35 10.6 °C 7.8 °C 1026.6 hPa North 24.1 km/h 24.1 km/h 83 % 0 mm
02:39 10.7 °C 7.9 °C 1026.6 hPa North 18.5 km/h 18.5 km/h 83 % 0 mm
02:45 10.7 °C 7.8 °C 1026.6 hPa SSW 14.8 km/h 14.8 km/h 82 % 0 mm
02:50 10.7 °C 7.8 °C 1026.6 hPa SSW 9.3 km/h 9.3 km/h 82 % 0 mm
02:54 10.7 °C 7.8 °C 1026.6 hPa SSW 11.3 km/h 11.3 km/h 82 % 0 mm
02:59 10.7 °C 7.7 °C 1026.6 hPa SSW 11.1 km/h 11.1 km/h 82 % 0 mm
03:04 10.7 °C 7.7 °C 1026.6 hPa SSW 14.5 km/h 14.5 km/h 82 % 0 mm
03:09 10.6 °C 7.8 °C 1026.6 hPa North 14.8 km/h 14.8 km/h 83 % 0 mm
03:14 10.6 °C 7.7 °C 1026.6 hPa South 13 km/h 13 km/h 82 % 0 mm
03:19 10.6 °C 7.8 °C 1026.6 hPa South 11.3 km/h 11.3 km/h 83 % 0 mm
03:24 10.6 °C 7.8 °C 1026.6 hPa South 13 km/h 13 km/h 83 % 0 mm
03:29 10.5 °C 7.7 °C 1026.6 hPa South 7.4 km/h 7.4 km/h 83 % 0 mm
03:34 10.5 °C 7.6 °C 1026.3 hPa SSW 7.4 km/h 7.4 km/h 82 % 0 mm
03:39 10.5 °C 7.6 °C 1026.3 hPa SSW 7.4 km/h 7.4 km/h 82 % 0 mm
03:44 10.5 °C 7.6 °C 1026.3 hPa South 9.7 km/h 9.7 km/h 82 % 0 mm
03:49 10.6 °C 7.6 °C 1026.3 hPa SSW 13 km/h 13 km/h 82 % 0 mm
03:55 10.6 °C 7.7 °C 1026.3 hPa South 5.6 km/h 5.6 km/h 82 % 0 mm
04:00 10.6 °C 7.5 °C 1026.3 hPa South 9.3 km/h 9.3 km/h 81 % 0 mm
04:05 10.6 °C 7.7 °C 1026.3 hPa South 5.6 km/h 5.6 km/h 82 % 0 mm
04:07 10.6 °C 7.7 °C 1026.3 hPa South 5.6 km/h 5.6 km/h 82 % 0 mm
04:12 10.6 °C 7.6 °C 1026.3 hPa South 5.6 km/h 5.6 km/h 82 % 0 mm
04:17 10.5 °C 7.6 °C 1026.3 hPa North 7.4 km/h 7.4 km/h 82 % 0 mm
04:22 10.5 °C 7.6 °C 1026.3 hPa South 9.3 km/h 9.3 km/h 82 % 0 mm
04:27 10.5 °C 7.7 °C 1026.3 hPa SSW 11.3 km/h 11.3 km/h 83 % 0 mm
04:32 10.4 °C 7.7 °C 1026.3 hPa SSW 14.8 km/h 14.8 km/h 83 % 0 mm
04:37 10.3 °C 7.9 °C 1026.3 hPa North 24.1 km/h 24.1 km/h 85 % 0 mm
04:42 10.1 °C 8.1 °C 1026.3 hPa SSW 18.5 km/h 18.5 km/h 87 % 0 mm
04:48 9.9 °C 8.1 °C 1026.3 hPa North 11.1 km/h 11.1 km/h 88 % 0 mm
04:53 9.9 °C 8.2 °C 1026.3 hPa SSW 16.7 km/h 16.7 km/h 89 % 0 mm
04:58 9.8 °C 8.1 °C 1026.6 hPa SSW 11.1 km/h 11.1 km/h 89 % 0 mm
05:03 9.8 °C 8.1 °C 1026.6 hPa SSW 14.8 km/h 14.8 km/h 89 % 0 mm
05:08 9.8 °C 8.3 °C 1026.6 hPa SSW 9.3 km/h 9.3 km/h 90 % 0 mm
05:13 9.8 °C 8.3 °C 1026.6 hPa SSW 9.3 km/h 9.3 km/h 90 % 0 mm
05:18 9.8 °C 8.3 °C 1026.6 hPa SSW 11.1 km/h 11.1 km/h 90 % 0 mm
05:23 9.8 °C 8.3 °C 1026.6 hPa SSW 11.3 km/h 11.3 km/h 90 % 0 mm
05:28 9.8 °C 8.4 °C 1026.6 hPa SSW 11.3 km/h 11.3 km/h 91 % 0 mm
05:33 9.8 °C 8.4 °C 1027 hPa SSW 18.5 km/h 18.5 km/h 91 % 0 mm
05:38 9.8 °C 8.4 °C 1027 hPa SSW 11.3 km/h 11.3 km/h 91 % 0 mm
05:43 9.9 °C 8.5 °C 1027 hPa SSW 7.4 km/h 7.4 km/h 91 % 0 mm
05:48 9.9 °C 8.5 °C 1027 hPa South 18.5 km/h 18.5 km/h 91 % 0 mm
05:53 9.9 °C 8.5 °C 1027 hPa SSW 14.5 km/h 14.5 km/h 91 % 0 mm
05:58 9.8 °C 8.6 °C 1027 hPa South 13 km/h 13 km/h 92 % 0 mm
06:03 9.8 °C 8.6 °C 1027 hPa SSW 9.3 km/h 9.3 km/h 92 % 0 mm
06:08 9.8 °C 8.6 °C 1027.3 hPa SSW 11.1 km/h 11.1 km/h 92 % 0 mm
06:13 9.8 °C 8.6 °C 1027.3 hPa SSW 7.4 km/h 7.4 km/h 92 % 0 mm
06:18 9.8 °C 8.6 °C 1027.3 hPa South 7.4 km/h 7.4 km/h 92 % 0 mm
06:23 9.7 °C 8.5 °C 1027.3 hPa SSW 8 km/h 8 km/h 92 % 0 mm
06:28 9.7 °C 8.5 °C 1027.3 hPa SSW 9.3 km/h 9.3 km/h 92 % 0 mm
06:33 9.7 °C 8.5 °C 1027.3 hPa SSW 13 km/h 13 km/h 92 % 0 mm
06:38 9.7 °C 8.4 °C 1027.3 hPa SSW 8 km/h 8 km/h 92 % 0 mm
06:43 9.7 °C 8.4 °C 1027.3 hPa North 7.4 km/h 7.4 km/h 92 % 0 mm
06:48 9.7 °C 8.4 °C 1027.3 hPa SSW 14.8 km/h 14.8 km/h 92 % 0 mm
06:53 9.7 °C 8.3 °C 1027.7 hPa SSW 9.3 km/h 9.3 km/h 91 % 0 mm
06:58 9.7 °C 8.3 °C 1027.7 hPa South 5.6 km/h 5.6 km/h 91 % 0 mm
07:03 9.7 °C 8.2 °C 1027.3 hPa SSW 7.4 km/h 7.4 km/h 90 % 0 mm
07:08 9.7 °C 8.2 °C 1027.3 hPa SSW 20.4 km/h 20.4 km/h 90 % 0 mm
07:13 9.8 °C 7.9 °C 1027.7 hPa South 16.7 km/h 16.7 km/h 88 % 0 mm
07:18 9.9 °C 7.7 °C 1027.7 hPa South 18.5 km/h 18.5 km/h 86 % 0 mm
07:23 10.1 °C 7.7 °C 1027.7 hPa South 5.6 km/h 5.6 km/h 85 % 0 mm
07:28 10.1 °C 7.7 °C 1027.7 hPa South 9.3 km/h 9.3 km/h 85 % 0 mm
07:33 10.1 °C 7.7 °C 1027.7 hPa South 7.4 km/h 7.4 km/h 85 % 0 mm
07:38 10.2 °C 7.8 °C 1027.7 hPa South 11.1 km/h 11.1 km/h 85 % 0 mm
07:43 10.2 °C 7.6 °C 1027.7 hPa South 13 km/h 13 km/h 84 % 0 mm
07:48 10.2 °C 7.6 °C 1027.7 hPa SSW 5.6 km/h 5.6 km/h 84 % 0 mm
07:53 10.3 °C 7.7 °C 1027.7 hPa SSW 9.3 km/h 9.3 km/h 84 % 0 mm
07:58 10.3 °C 7.5 °C 1027.7 hPa SSW 11.1 km/h 11.1 km/h 83 % 0 mm
08:03 10.3 °C 7.5 °C 1027.7 hPa SSW 5.6 km/h 5.6 km/h 83 % 0 mm
08:08 10.3 °C 7.6 °C 1027.7 hPa SSW 9.7 km/h 9.7 km/h 83 % 0 mm
08:13 10.4 °C 7.6 °C 1027.7 hPa SSW 7.4 km/h 7.4 km/h 83 % 0 mm
08:18 10.4 °C 7.6 °C 1027.7 hPa SSW 5.6 km/h 5.6 km/h 83 % 0 mm
08:23 10.4 °C 7.6 °C 1027.7 hPa SSW 11.1 km/h 11.1 km/h 83 % 0 mm
08:28 10.4 °C 7.7 °C 1028 hPa SSW 14.8 km/h 14.8 km/h 83 % 0 mm
08:33 10.6 °C 7.6 °C 1028 hPa SSW 13 km/h 13 km/h 82 % 0 mm
08:38 10.6 °C 7.5 °C 1028 hPa SSW 14.8 km/h 14.8 km/h 81 % 0 mm
08:43 10.7 °C 7.6 °C 1028 hPa SSW 9.7 km/h 9.7 km/h 81 % 0 mm
08:48 10.7 °C 7.6 °C 1028 hPa SSW 9.3 km/h 9.3 km/h 81 % 0 mm
08:53 10.7 °C 7.6 °C 1028 hPa South 12.9 km/h 12.9 km/h 81 % 0 mm
08:58 10.8 °C 7.5 °C 1028 hPa SSW 6.4 km/h 6.4 km/h 80 % 0 mm
09:03 10.9 °C 7.6 °C 1028 hPa South 12.9 km/h 12.9 km/h 80 % 0 mm
09:08 11.1 °C 7.4 °C 1028 hPa SSW 16.7 km/h 16.7 km/h 78 % 0 mm
09:13 11.2 °C 7.1 °C 1028 hPa South 20.4 km/h 20.4 km/h 76 % 0 mm
09:18 11.3 °C 7.1 °C 1028 hPa South 14.8 km/h 14.8 km/h 75 % 0 mm
09:23 11.5 °C 7 °C 1028 hPa SSW 18.5 km/h 18.5 km/h 74 % 0 mm
09:28 11.6 °C 6.9 °C 1028 hPa SSW 18.5 km/h 18.5 km/h 73 % 0 mm
09:33 11.6 °C 6.7 °C 1028 hPa South 18.5 km/h 18.5 km/h 72 % 0 mm
09:38 11.7 °C 6.8 °C 1028 hPa SSW 20.4 km/h 20.4 km/h 72 % 0 mm
09:43 11.7 °C 6.8 °C 1028 hPa SSW 20.9 km/h 20.9 km/h 72 % 0 mm
09:48 11.7 °C 6.8 °C 1028 hPa South 16.7 km/h 16.7 km/h 72 % 0 mm
09:53 11.7 °C 7 °C 1028 hPa SSW 22.2 km/h 22.2 km/h 73 % 0 mm
09:58 11.7 °C 7 °C 1028 hPa South 18.5 km/h 18.5 km/h 73 % 0 mm
10:03 11.7 °C 7.2 °C 1028 hPa South 18.5 km/h 18.5 km/h 74 % 0 mm
10:08 11.7 °C 7.2 °C 1028 hPa South 12.9 km/h 12.9 km/h 74 % 0 mm
10:13 11.7 °C 7.2 °C 1028 hPa SSW 18.5 km/h 18.5 km/h 74 % 0 mm
10:18 11.7 °C 7.1 °C 1028 hPa North 19.3 km/h 19.3 km/h 73 % 0 mm
10:23 11.8 °C 7.1 °C 1028 hPa SSW 18.5 km/h 18.5 km/h 73 % 0 mm
10:28 11.7 °C 7.1 °C 1028 hPa SSW 18.5 km/h 19.2 km/h 73 % 0 mm
10:33 11.8 °C 7.3 °C 1028 hPa South 18.5 km/h 18.5 km/h 74 % 0 mm
10:38 11.8 °C 7.2 °C 1028 hPa South 16.7 km/h 16.7 km/h 73 % 0 mm
10:43 11.8 °C 6.7 °C 1028 hPa SSW 20.4 km/h 20.4 km/h 71 % 0 mm
10:48 11.8 °C 6.5 °C 1028 hPa North 24.1 km/h 24.1 km/h 70 % 0 mm
10:53 11.8 °C 6.7 °C 1028 hPa South 13 km/h 13 km/h 71 % 0 mm
10:58 11.9 °C 7.3 °C 1028 hPa SSW 20.4 km/h 20.4 km/h 73 % 0 mm
11:03 11.8 °C 6.9 °C 1028 hPa South 22.2 km/h 22.2 km/h 72 % 0 mm
11:08 11.8 °C 6.7 °C 1028 hPa SSE 18.5 km/h 18.5 km/h 71 % 0 mm
11:13 11.8 °C 6.5 °C 1028 hPa SSW 24.1 km/h 24.1 km/h 70 % 0 mm
11:18 11.8 °C 6.5 °C 1028 hPa SSW 13 km/h 13 km/h 70 % 0 mm
11:23 11.8 °C 6.6 °C 1028 hPa SSW 24.1 km/h 24.1 km/h 70 % 0 mm
11:28 11.8 °C 6.7 °C 1028 hPa SW 20.4 km/h 20.4 km/h 71 % 0 mm
11:33 11.9 °C 6.8 °C 1027.7 hPa South 13 km/h 13 km/h 71 % 0 mm
11:38 12.1 °C 7.2 °C 1027.7 hPa South 18.5 km/h 18.5 km/h 72 % 0 mm
11:43 12.1 °C 6.6 °C 1027.7 hPa South 13 km/h 13 km/h 69 % 0 mm
11:48 12.1 °C 6.4 °C 1027.3 hPa SSW 16.7 km/h 16.7 km/h 68 % 0 mm
11:53 12.1 °C 6.6 °C 1027.3 hPa South 16.7 km/h 16.7 km/h 69 % 0 mm
11:58 12.1 °C 6.8 °C 1027.3 hPa South 16.7 km/h 16.7 km/h 70 % 0 mm
12:03 12.1 °C 7 °C 1027.3 hPa SSW 14.8 km/h 15.9 km/h 71 % 0 mm
12:09 12.1 °C 6.8 °C 1027 hPa SSW 11.3 km/h 11.4 km/h 70 % 0 mm
12:14 12.2 °C 6.7 °C 1027 hPa SSW 11.3 km/h 11.3 km/h 69 % 0 mm
12:19 12.3 °C 6.8 °C 1027 hPa SSW 16.7 km/h 16.7 km/h 69 % 0 mm
12:24 12.4 °C 6.7 °C 1027 hPa South 18.5 km/h 18.5 km/h 68 % 0 mm
12:29 12.4 °C 6.7 °C 1026.6 hPa North 18.5 km/h 18.5 km/h 68 % 0 mm
12:34 12.3 °C 6.6 °C 1026.6 hPa SSE 14.8 km/h 14.8 km/h 68 % 0 mm
12:39 12.3 °C 6.6 °C 1026.6 hPa South 18.5 km/h 18.5 km/h 68 % 0 mm
12:44 12.4 °C 6.7 °C 1026.6 hPa SSW 11.1 km/h 11.1 km/h 68 % 0 mm
12:49 12.7 °C 6.7 °C 1026.6 hPa North 18.5 km/h 18.5 km/h 67 % 0 mm
12:54 12.9 °C 6.7 °C 1026.3 hPa SW 13 km/h 13 km/h 66 % 0 mm
12:59 13 °C 6.6 °C 1026.3 hPa SSW 18.5 km/h 18.5 km/h 65 % 0 mm
13:04 13.2 °C 6.9 °C 1026.3 hPa SSW 18.5 km/h 18.5 km/h 66 % 0 mm
13:09 13.4 °C 7 °C 1026.3 hPa South 18.5 km/h 18.5 km/h 65 % 0 mm
13:14 13.6 °C 7.1 °C 1026.3 hPa SSE 22.2 km/h 22.2 km/h 65 % 0 mm
13:19 13.7 °C 6.7 °C 1026 hPa SW 25.9 km/h 25.9 km/h 63 % 0 mm
13:24 13.4 °C 6.5 °C 1026 hPa SSW 20.4 km/h 20.4 km/h 63 % 0 mm
13:29 13.3 °C 6.6 °C 1026 hPa SSW 22.2 km/h 22.2 km/h 64 % 0 mm
13:34 13.3 °C 6.9 °C 1026 hPa SSE 20.4 km/h 20.4 km/h 65 % 0 mm
13:39 13.5 °C 6.8 °C 1026 hPa SSE 16.7 km/h 16.7 km/h 64 % 0 mm
13:44 13.7 °C 7.1 °C 1026 hPa South 17.7 km/h 17.7 km/h 64 % 0 mm
13:49 13.5 °C 6.8 °C 1026 hPa South 20.4 km/h 20.4 km/h 64 % 0 mm
13:54 13.3 °C 6.9 °C 1025.6 hPa SSW 18.5 km/h 18.5 km/h 65 % 0 mm
13:59 13.4 °C 7 °C 1025.6 hPa South 9.3 km/h 9.3 km/h 65 % 0 mm
14:04 13.5 °C 6.8 °C 1025.6 hPa South 18.5 km/h 18.5 km/h 64 % 0 mm
14:09 13.4 °C 6.8 °C 1025.6 hPa South 18.5 km/h 18.5 km/h 64 % 0 mm
14:14 13.5 °C 7.3 °C 1025.6 hPa South 9.3 km/h 9.3 km/h 66 % 0 mm
14:19 13.5 °C 7.1 °C 1025.6 hPa SSW 18.5 km/h 18.5 km/h 65 % 0 mm
14:24 13.6 °C 7.2 °C 1025.6 hPa South 20.4 km/h 20.4 km/h 65 % 0 mm
14:29 13.7 °C 7 °C 1025.6 hPa South 24.1 km/h 24.1 km/h 64 % 0 mm
14:34 13.5 °C 6.6 °C 1025.6 hPa South 20.4 km/h 20.4 km/h 63 % 0 mm
14:39 13.4 °C 7 °C 1025.6 hPa SSE 13 km/h 13 km/h 65 % 0 mm
14:44 13.4 °C 6.9 °C 1025.6 hPa SSW 18.5 km/h 18.5 km/h 65 % 0 mm
14:49 13.4 °C 6.9 °C 1025.6 hPa South 18.5 km/h 18.5 km/h 65 % 0 mm
14:54 13.4 °C 7 °C 1025.6 hPa South 20.9 km/h 20.9 km/h 65 % 0 mm
14:59 13.4 °C 7.2 °C 1025.6 hPa SSE 16.7 km/h 16.7 km/h 66 % 0 mm
15:04 13.4 °C 7.2 °C 1025.6 hPa South 16.7 km/h 16.7 km/h 66 % 0 mm
15:09 13.3 °C 6.9 °C 1025.6 hPa SSE 12.9 km/h 12.9 km/h 65 % 0 mm
15:14 13.3 °C 6.7 °C 1025.6 hPa SSE 22.2 km/h 22.2 km/h 64 % 0 mm
15:19 13.3 °C 6.9 °C 1025.6 hPa SSE 20.4 km/h 20.4 km/h 65 % 0 mm
15:24 13.3 °C 7.1 °C 1025.6 hPa SSE 14.8 km/h 14.8 km/h 66 % 0 mm
15:29 13.3 °C 6.8 °C 1025.6 hPa South 18.5 km/h 18.5 km/h 65 % 0 mm
15:34 13.1 °C 6.7 °C 1025.6 hPa SSE 22.2 km/h 22.2 km/h 65 % 0 mm
15:39 13.1 °C 6.8 °C 1025.6 hPa SSE 18.5 km/h 18.5 km/h 66 % 0 mm
15:44 13 °C 6.8 °C 1025.6 hPa SE 29.6 km/h 29.6 km/h 66 % 0 mm
15:49 12.9 °C 6.3 °C 1025.6 hPa South 18.5 km/h 18.5 km/h 64 % 0 mm
15:54 12.9 °C 6.5 °C 1025.6 hPa SSE 11.3 km/h 11.3 km/h 65 % 0 mm
15:59 12.9 °C 6.5 °C 1025.6 hPa South 11.1 km/h 11.1 km/h 65 % 0 mm
16:04 13 °C 6.6 °C 1026 hPa South 13 km/h 13 km/h 65 % 0 mm
16:09 13 °C 6.6 °C 1025.6 hPa South 14.8 km/h 14.8 km/h 65 % 0 mm
16:14 13.1 °C 6.8 °C 1026 hPa SSE 14.8 km/h 14.8 km/h 66 % 0 mm
16:19 13 °C 6.8 °C 1026 hPa SSE 16.7 km/h 16.7 km/h 66 % 0 mm
16:24 12.9 °C 6.7 °C 1026 hPa South 18.5 km/h 18.5 km/h 66 % 0 mm
16:29 12.9 °C 6.4 °C 1026 hPa SSW 16.7 km/h 16.7 km/h 65 % 0 mm
16:34 12.8 °C 6.3 °C 1026 hPa South 12.9 km/h 12.9 km/h 65 % 0 mm
16:39 12.7 °C 6.3 °C 1026 hPa SSW 18.5 km/h 18.5 km/h 65 % 0 mm
16:44 12.7 °C 6.5 °C 1026 hPa South 20.4 km/h 20.4 km/h 66 % 0 mm
16:49 12.7 °C 6.5 °C 1026 hPa SSW 16.7 km/h 16.7 km/h 66 % 0 mm
16:54 12.7 °C 6.5 °C 1026 hPa South 11.1 km/h 11.1 km/h 66 % 0 mm
16:59 12.6 °C 6.4 °C 1026 hPa South 16.7 km/h 16.7 km/h 66 % 0 mm
17:04 12.6 °C 6.4 °C 1026 hPa South 11.1 km/h 11.1 km/h 66 % 0 mm
17:09 12.6 °C 6.8 °C 1026 hPa North 9.3 km/h 9.3 km/h 68 % 0 mm
17:14 12.5 °C 6.6 °C 1026 hPa SSE 16.7 km/h 16.7 km/h 67 % 0 mm
17:19 12.5 °C 6.8 °C 1026 hPa South 16.7 km/h 16.7 km/h 68 % 0 mm
17:24 12.5 °C 6.8 °C 1026 hPa South 11.1 km/h 11.1 km/h 68 % 0 mm
17:29 12.4 °C 6.7 °C 1026.3 hPa South 13 km/h 13 km/h 68 % 0 mm
17:34 12.4 °C 6.7 °C 1026.3 hPa South 14.8 km/h 14.8 km/h 68 % 0 mm
17:39 12.3 °C 6.6 °C 1026.3 hPa South 11.1 km/h 11.1 km/h 68 % 0 mm
17:44 12.3 °C 6.6 °C 1026.3 hPa SSE 25.9 km/h 25.9 km/h 68 % 0 mm
17:49 12.3 °C 6.3 °C 1026.3 hPa South 6.4 km/h 6.4 km/h 67 % 0 mm
17:54 12.3 °C 6.3 °C 1026.3 hPa South 16.7 km/h 16.7 km/h 67 % 0 mm
17:59 12.2 °C 6.3 °C 1026.3 hPa South 13 km/h 13 km/h 67 % 0 mm
18:04 12.2 °C 6.4 °C 1026.3 hPa South 13 km/h 13 km/h 68 % 0 mm
18:09 12.1 °C 6.6 °C 1026.6 hPa South 14.8 km/h 14.8 km/h 69 % 0 mm
18:14 12.1 °C 6.3 °C 1026.6 hPa South 18.5 km/h 18.5 km/h 68 % 0 mm
18:19 12.1 °C 6.4 °C 1026.6 hPa South 13 km/h 13 km/h 68 % 0 mm
18:24 12.1 °C 6.4 °C 1026.6 hPa South 11.1 km/h 11.1 km/h 68 % 0 mm
18:29 12.1 °C 6.3 °C 1026.6 hPa South 17.7 km/h 17.7 km/h 68 % 0 mm
18:34 12.1 °C 6.3 °C 1026.6 hPa South 14.8 km/h 14.8 km/h 68 % 0 mm
18:39 12.1 °C 6.7 °C 1026.6 hPa South 14.5 km/h 14.5 km/h 70 % 0 mm
18:44 12 °C 6.9 °C 1026.6 hPa SSE 9.3 km/h 9.3 km/h 71 % 0 mm
18:49 12 °C 7.1 °C 1027 hPa SSE 7.4 km/h 7.4 km/h 72 % 0 mm
18:54 11.9 °C 7.3 °C 1027 hPa SSE 9.7 km/h 9.7 km/h 73 % 0 mm
18:59 11.8 °C 7.2 °C 1027 hPa SSE 18.5 km/h 18.5 km/h 73 % 0 mm
19:04 11.8 °C 7.3 °C 1027 hPa SSE 14.8 km/h 14.8 km/h 74 % 0 mm
19:09 11.7 °C 7.4 °C 1027 hPa SSE 13 km/h 13 km/h 75 % 0 mm
19:14 11.7 °C 7.4 °C 1027 hPa SSE 9.3 km/h 9.3 km/h 75 % 0 mm
19:19 11.7 °C 7.4 °C 1027 hPa SSE 9.3 km/h 9.3 km/h 75 % 0 mm
19:24 11.6 °C 7.5 °C 1027 hPa SSE 11.1 km/h 11.1 km/h 76 % 0 mm
19:29 11.6 °C 7.5 °C 1027 hPa SSE 11.1 km/h 11.1 km/h 76 % 0 mm
19:34 11.6 °C 7.4 °C 1027 hPa SSE 9.3 km/h 9.3 km/h 76 % 0 mm
19:39 11.6 °C 7.7 °C 1027 hPa SSE 13 km/h 13 km/h 77 % 0 mm
19:44 11.6 °C 7.7 °C 1027 hPa SSE 13 km/h 13 km/h 77 % 0 mm
19:49 11.5 °C 7.8 °C 1027 hPa SSE 7.4 km/h 7.4 km/h 78 % 0 mm
19:54 11.4 °C 7.7 °C 1027 hPa SSE 9.3 km/h 9.3 km/h 78 % 0 mm
19:59 11.4 °C 7.7 °C 1027 hPa SSE 13 km/h 13 km/h 78 % 0 mm
20:04 11.4 °C 7.9 °C 1027 hPa SSE 11.1 km/h 11.1 km/h 79 % 0 mm
20:09 11.3 °C 7.8 °C 1027 hPa South 13 km/h 13 km/h 79 % 0 mm
20:14 11.2 °C 7.7 °C 1027 hPa South 11.1 km/h 11.1 km/h 79 % 0 mm
20:19 11.2 °C 7.9 °C 1027 hPa South 9.7 km/h 9.7 km/h 80 % 0 mm
20:24 11.2 °C 7.8 °C 1027 hPa SSE 7.4 km/h 7.4 km/h 80 % 0 mm
20:29 11.2 °C 7.8 °C 1027 hPa SSE 11.1 km/h 11.1 km/h 80 % 0 mm
20:34 11.1 °C 7.9 °C 1027 hPa South 11.1 km/h 11.1 km/h 81 % 0 mm
20:39 11.1 °C 7.9 °C 1027 hPa South 9.3 km/h 9.3 km/h 81 % 0 mm
20:44 11.1 °C 7.9 °C 1027 hPa SSE 9.3 km/h 9.3 km/h 81 % 0 mm
20:49 11.1 °C 7.8 °C 1027 hPa South 13 km/h 13 km/h 80 % 0 mm
20:54 11.1 °C 7.8 °C 1027 hPa South 13 km/h 13 km/h 80 % 0 mm
20:59 11.1 °C 7.8 °C 1027 hPa South 9.7 km/h 9.7 km/h 80 % 0 mm
21:04 11.1 °C 7.9 °C 1027 hPa South 9.3 km/h 9.3 km/h 81 % 0 mm
21:09 11.1 °C 7.9 °C 1027 hPa South 9.7 km/h 9.7 km/h 81 % 0 mm
21:14 11.1 °C 7.9 °C 1027 hPa South 7.4 km/h 7.4 km/h 81 % 0 mm
21:19 11.1 °C 7.9 °C 1027.3 hPa SSE 7.4 km/h 7.4 km/h 81 % 0 mm
21:24 11.1 °C 7.9 °C 1027.3 hPa SSE 7.4 km/h 7.4 km/h 81 % 0 mm
21:29 11 °C 7.9 °C 1027.3 hPa SSE 13 km/h 13 km/h 81 % 0 mm
21:34 11 °C 8.1 °C 1027.3 hPa SSE 11.3 km/h 11.3 km/h 82 % 0 mm
21:39 10.9 °C 8 °C 1027.3 hPa South 9.3 km/h 9.3 km/h 82 % 0 mm
21:44 10.9 °C 8 °C 1027.3 hPa South 5.6 km/h 5.6 km/h 82 % 0 mm
21:49 10.9 °C 8.1 °C 1027.3 hPa SSE 7.4 km/h 7.4 km/h 83 % 0 mm
21:54 10.8 °C 8.1 °C 1027.3 hPa North 5.6 km/h 5.6 km/h 83 % 0 mm
21:59 10.8 °C 8.2 °C 1027.3 hPa SSE 9.3 km/h 9.3 km/h 84 % 0 mm
22:04 10.8 °C 8.2 °C 1027.3 hPa SSE 5.6 km/h 5.6 km/h 84 % 0 mm
22:09 10.7 °C 8.1 °C 1027.3 hPa North 8 km/h 8 km/h 84 % 0 mm
22:14 10.7 °C 8.3 °C 1027.3 hPa SSE 5.6 km/h 5.6 km/h 85 % 0 mm
22:19 10.7 °C 8.3 °C 1027.3 hPa SSE 9.3 km/h 9.3 km/h 85 % 0 mm
22:24 10.7 °C 8.2 °C 1027.3 hPa South 7.4 km/h 7.4 km/h 85 % 0 mm
22:29 10.7 °C 8.4 °C 1027.3 hPa South 9.3 km/h 9.3 km/h 86 % 0 mm
22:34 10.7 °C 8.4 °C 1027.3 hPa South 9.3 km/h 9.3 km/h 86 % 0 mm
22:39 10.7 °C 8.6 °C 1027.3 hPa SSE 5.6 km/h 5.6 km/h 87 % 0 mm
22:44 10.7 °C 8.6 °C 1027.3 hPa South 5.6 km/h 5.6 km/h 87 % 0 mm
22:49 10.7 °C 8.6 °C 1027.3 hPa South 9.3 km/h 9.3 km/h 87 % 0 mm
22:54 10.6 °C 8.7 °C 1027.3 hPa SSE 9.7 km/h 9.7 km/h 88 % 0 mm
22:59 10.6 °C 8.7 °C 1027.3 hPa South 8 km/h 8 km/h 88 % 0 mm
23:04 10.6 °C 8.8 °C 1027.3 hPa SSE 7.4 km/h 7.4 km/h 89 % 0 mm
23:09 10.6 °C 9.3 °C 1027.3 hPa South 11.1 km/h 11.1 km/h 92 % 0 mm
23:15 10.6 °C 8.8 °C 1027.3 hPa SSE 6.4 km/h 6.4 km/h 89 % 0 mm
23:20 10.5 °C 8.8 °C 1027.3 hPa South 9.7 km/h 9.7 km/h 89 % 0 mm
23:25 10.5 °C 8.8 °C 1027.3 hPa North 7.4 km/h 7.4 km/h 89 % 0 mm
23:30 10.6 °C 9 °C 1027.3 hPa South 9.3 km/h 9.3 km/h 90 % 0 mm
23:35 10.6 °C 9 °C 1027.3 hPa South 9.7 km/h 9.7 km/h 90 % 0 mm
23:40 10.6 °C 9 °C 1027.3 hPa South 9.3 km/h 9.3 km/h 90 % 0 mm
23:45 10.5 °C 8.9 °C 1027 hPa SSE 11.1 km/h 11.1 km/h 90 % 0 mm
23:50 10.5 °C 9.1 °C 1027.3 hPa South 9.7 km/h 9.7 km/h 91 % 0 mm
23:55 10.6 °C 9.2 °C 1027 hPa South 11.1 km/h 11.1 km/h 91 % 0 mm
Ararat Weather
Compliments of Weather Underground - 2.25 mb
Click here to send mail.


ABOUT

Live weather data from Ararat, Victoria, Australia, 3377
Data uploaded from Cumulus every 5 minutes to Weather Underground.
This site then downloads the raw data for formatting and display.
Metric and imperial data can be displayed. Graphs and historical data available.
Includes Sun and Moon times and rain image live from BOM.

Check out Ararat Weather on Facebook, Twitter and Google +

Help support ongoing costs by checking out the ads





Follow @AraratWeather